createdAt,value
2022-08-19T00:00:17.522Z,17.81
2022-08-19T00:01:17.489Z,17.77
2022-08-19T00:02:17.465Z,17.70
2022-08-19T00:03:17.412Z,17.76
2022-08-19T00:04:17.425Z,17.73
2022-08-19T00:05:17.338Z,17.71
2022-08-19T00:06:17.303Z,17.58
2022-08-19T00:07:17.263Z,17.68
2022-08-19T00:08:17.234Z,17.66
2022-08-19T00:09:17.187Z,17.68
2022-08-19T00:10:17.150Z,17.58
2022-08-19T00:11:18.790Z,17.70
2022-08-19T00:12:17.078Z,17.70
2022-08-19T00:13:17.052Z,17.70
2022-08-19T00:14:17.000Z,17.77
2022-08-19T00:15:16.963Z,17.79
2022-08-19T00:16:16.925Z,17.62
2022-08-19T00:17:16.888Z,17.73
2022-08-19T00:18:16.850Z,17.54
2022-08-19T00:19:16.835Z,17.66
2022-08-19T00:20:16.775Z,17.58
2022-08-19T00:21:16.740Z,17.70
2022-08-19T00:22:16.702Z,17.60
2022-08-19T00:23:16.664Z,17.63
2022-08-19T00:24:16.626Z,17.60
2022-08-19T00:25:16.603Z,17.53
2022-08-19T00:26:16.551Z,17.47
2022-08-19T00:27:25.709Z,17.51
2022-08-19T00:28:16.476Z,17.47
2022-08-19T00:29:16.442Z,17.46
2022-08-19T00:30:16.428Z,17.47
2022-08-19T00:31:16.365Z,17.53
2022-08-19T00:32:16.328Z,17.49
2022-08-19T00:33:16.293Z,17.49
2022-08-19T00:34:16.250Z,17.49
2022-08-19T00:35:16.215Z,17.57
2022-08-19T00:36:16.187Z,17.53
2022-08-19T00:37:16.141Z,17.58
2022-08-19T00:38:16.117Z,17.47
2022-08-19T00:39:16.065Z,17.46
2022-08-19T00:40:16.027Z,17.42
2022-08-19T00:41:15.995Z,17.51
2022-08-19T00:42:15.952Z,17.53
2022-08-19T00:43:15.916Z,17.49
2022-08-19T00:44:15.892Z,17.57
2022-08-19T00:45:15.843Z,17.55
2022-08-19T00:46:15.801Z,17.46
2022-08-19T00:47:16.177Z,17.54
2022-08-19T00:48:15.727Z,17.54
2022-08-19T00:49:15.691Z,17.55
2022-08-19T00:50:15.669Z,17.36
2022-08-19T00:51:15.615Z,17.40
2022-08-19T00:52:15.578Z,17.47
2022-08-19T00:53:15.541Z,17.42
2022-08-19T00:54:15.502Z,17.40
2022-08-19T00:55:15.468Z,17.33
2022-08-19T00:56:15.441Z,17.36
2022-08-19T00:57:15.391Z,17.32
2022-08-19T00:58:15.353Z,17.38
2022-08-19T00:59:15.316Z,17.39
2022-08-19T01:00:15.295Z,17.43
2022-08-19T01:01:15.284Z,17.39
2022-08-19T01:02:15.203Z,17.39
2022-08-19T01:03:15.165Z,17.42
2022-08-19T01:04:15.128Z,17.40
2022-08-19T01:05:15.094Z,17.42
2022-08-19T01:06:15.064Z,17.32
2022-08-19T01:07:17.410Z,17.28
2022-08-19T01:08:14.980Z,17.32
2022-08-19T01:09:14.943Z,17.35
2022-08-19T01:10:14.914Z,17.35
2022-08-19T01:11:14.866Z,17.40
2022-08-19T01:12:14.829Z,17.33
2022-08-19T01:13:14.790Z,17.42
2022-08-19T01:14:14.753Z,17.38
2022-08-19T01:15:14.716Z,17.36
2022-08-19T01:16:14.703Z,17.36
2022-08-19T01:17:14.640Z,17.35
2022-08-19T01:18:14.602Z,17.32
2022-08-19T01:19:14.566Z,17.27
2022-08-19T01:20:14.528Z,17.18
2022-08-19T01:21:14.489Z,17.32
2022-08-19T01:22:16.851Z,17.30
2022-08-19T01:23:14.420Z,17.21
2022-08-19T01:24:14.421Z,17.30
2022-08-19T01:25:15.148Z,17.25
2022-08-19T01:26:14.328Z,17.22
2022-08-19T01:27:14.281Z,17.21
2022-08-19T01:28:14.236Z,17.07
2022-08-19T01:29:14.199Z,17.10
2022-08-19T01:30:14.157Z,17.14
2022-08-19T01:31:26.495Z,17.14
2022-08-19T01:32:32.098Z,17.14
2022-08-19T01:33:14.052Z,16.99
2022-08-19T01:34:14.004Z,17.07
2022-08-19T01:35:13.978Z,17.06
2022-08-19T01:36:13.928Z,16.98
2022-08-19T01:37:13.891Z,17.15
2022-08-19T01:38:13.851Z,17.03
2022-08-19T01:39:13.828Z,17.00
2022-08-19T01:40:13.878Z,16.98
2022-08-19T01:41:13.739Z,16.92
2022-08-19T01:42:13.701Z,16.90
2022-08-19T01:43:13.663Z,17.00
2022-08-19T01:44:18.539Z,16.88
2022-08-19T01:45:13.587Z,16.90
2022-08-19T01:46:13.550Z,17.02
2022-08-19T01:47:13.512Z,16.98
2022-08-19T01:48:13.475Z,17.03
2022-08-19T01:49:13.442Z,17.09
2022-08-19T01:50:13.418Z,16.92
2022-08-19T01:51:13.364Z,16.92
2022-08-19T01:52:13.326Z,16.90
2022-08-19T01:53:13.295Z,16.87
2022-08-19T01:54:13.246Z,16.85
2022-08-19T01:55:13.213Z,16.95
2022-08-19T01:56:13.193Z,16.90
2022-08-19T01:57:13.137Z,16.82
2022-08-19T01:58:13.104Z,16.82
2022-08-19T01:59:13.062Z,16.85
2022-08-19T02:00:13.025Z,16.81
2022-08-19T02:01:13.037Z,16.78
2022-08-19T02:02:12.948Z,16.84
2022-08-19T02:03:12.913Z,16.66
2022-08-19T02:04:12.874Z,16.67
2022-08-19T02:05:12.841Z,16.81
2022-08-19T02:06:12.810Z,16.72
2022-08-19T02:07:12.760Z,16.88
2022-08-19T02:08:12.723Z,16.67
2022-08-19T02:09:12.685Z,16.70
2022-08-19T02:10:12.645Z,16.67
2022-08-19T02:11:12.609Z,16.77
2022-08-19T02:12:12.586Z,16.67
2022-08-19T02:13:12.537Z,16.81
2022-08-19T02:14:12.496Z,16.73
2022-08-19T02:15:12.459Z,16.67
2022-08-19T02:16:12.421Z,16.65
2022-08-19T02:17:12.382Z,16.69
2022-08-19T02:18:12.356Z,16.65
2022-08-19T02:19:12.309Z,16.66
2022-08-19T02:20:12.271Z,16.67
2022-08-19T02:21:12.231Z,16.72
2022-08-19T02:22:12.194Z,16.67
2022-08-19T02:23:13.947Z,16.59
2022-08-19T02:24:12.132Z,16.60
2022-08-19T02:25:12.082Z,16.55
2022-08-19T02:26:12.042Z,16.51
2022-08-19T02:27:12.008Z,16.60
2022-08-19T02:28:15.518Z,16.62
2022-08-19T02:29:11.930Z,16.62
2022-08-19T02:30:14.128Z,16.73
2022-08-19T02:31:11.862Z,16.80
2022-08-19T02:32:11.822Z,16.72
2022-08-19T02:33:11.780Z,16.75
2022-08-19T02:34:11.742Z,16.66
2022-08-19T02:35:12.288Z,16.80
2022-08-19T02:36:11.681Z,16.72
2022-08-19T02:37:11.626Z,16.69
2022-08-19T02:38:11.596Z,16.70
2022-08-19T02:39:11.553Z,16.69
2022-08-19T02:40:12.497Z,16.70
2022-08-19T02:41:11.495Z,16.63
2022-08-19T02:42:11.452Z,16.67
2022-08-19T02:43:11.403Z,16.57
2022-08-19T02:44:28.618Z,16.62
2022-08-19T02:45:11.326Z,16.57
2022-08-19T02:46:11.300Z,16.60
2022-08-19T02:47:11.251Z,16.62
2022-08-19T02:48:21.027Z,16.59
2022-08-19T02:49:11.171Z,16.65
2022-08-19T02:50:11.151Z,16.63
2022-08-19T02:51:11.110Z,16.60
2022-08-19T02:52:11.065Z,16.72
2022-08-19T02:53:11.023Z,16.69
2022-08-19T02:54:10.987Z,16.65
2022-08-19T02:55:10.958Z,16.59
2022-08-19T02:56:10.911Z,16.65
2022-08-19T02:57:10.874Z,16.60
2022-08-19T02:58:10.835Z,16.60
2022-08-19T02:59:11.219Z,16.60
2022-08-19T03:00:10.760Z,16.63
2022-08-19T03:01:10.830Z,16.67
2022-08-19T03:02:10.683Z,16.70
2022-08-19T03:03:10.648Z,16.70
2022-08-19T03:04:10.612Z,16.67
2022-08-19T03:05:10.573Z,16.69
2022-08-19T03:06:10.534Z,16.69
2022-08-19T03:07:11.203Z,16.67
2022-08-19T03:08:10.459Z,16.62
2022-08-19T03:09:10.417Z,16.70
2022-08-19T03:10:10.385Z,16.69
2022-08-19T03:11:10.344Z,16.70
2022-08-19T03:12:10.307Z,16.55
2022-08-19T03:13:10.281Z,16.72
2022-08-19T03:14:10.248Z,16.65
2022-08-19T03:15:10.190Z,16.62
2022-08-19T03:16:18.193Z,16.55
2022-08-19T03:17:10.118Z,16.55
2022-08-19T03:18:10.080Z,16.59
2022-08-19T03:19:10.100Z,16.57
2022-08-19T03:20:10.009Z,16.50
2022-08-19T03:21:12.328Z,16.54
2022-08-19T03:22:09.929Z,16.62
2022-08-19T03:23:09.915Z,16.57
2022-08-19T03:24:09.858Z,16.59
2022-08-19T03:25:09.834Z,16.62
2022-08-19T03:26:16.668Z,16.60
2022-08-19T03:27:09.739Z,16.54
2022-08-19T03:28:09.707Z,16.59
2022-08-19T03:29:09.663Z,16.59
2022-08-19T03:30:11.653Z,16.59
2022-08-19T03:31:42.110Z,16.59
2022-08-19T03:32:09.565Z,16.63
2022-08-19T03:33:09.520Z,16.63
2022-08-19T03:34:09.477Z,16.59
2022-08-19T03:35:09.434Z,16.65
2022-08-19T03:36:09.407Z,16.62
2022-08-19T03:37:09.387Z,16.52
2022-08-19T03:38:09.324Z,16.52
2022-08-19T03:39:09.290Z,16.54
2022-08-19T03:40:09.312Z,16.52
2022-08-19T03:41:09.209Z,16.57
2022-08-19T03:42:33.075Z,16.52
2022-08-19T03:43:09.148Z,16.59
2022-08-19T03:44:09.112Z,16.59
2022-08-19T03:45:09.059Z,16.63
2022-08-19T03:46:09.021Z,16.62
2022-08-19T03:47:08.983Z,16.57
2022-08-19T03:48:08.943Z,16.44
2022-08-19T03:49:08.923Z,16.50
2022-08-19T03:50:08.873Z,16.59
2022-08-19T03:51:08.831Z,16.51
2022-08-19T03:52:08.796Z,16.50
2022-08-19T03:53:08.752Z,16.57
2022-08-19T03:54:08.722Z,16.54
2022-08-19T03:55:08.691Z,16.59
2022-08-19T03:56:08.655Z,16.57
2022-08-19T03:57:08.607Z,16.66
2022-08-19T03:58:08.567Z,16.66
2022-08-19T03:59:08.528Z,16.67
2022-08-19T04:00:13.462Z,16.65
2022-08-19T04:01:08.483Z,16.69
2022-08-19T04:02:08.432Z,16.75
2022-08-19T04:03:08.386Z,16.70
2022-08-19T04:04:08.343Z,16.69
2022-08-19T04:05:08.306Z,16.75
2022-08-19T04:06:08.262Z,16.70
2022-08-19T04:07:08.226Z,16.84
2022-08-19T04:08:13.310Z,16.67
2022-08-19T04:09:08.154Z,16.78
2022-08-19T04:10:08.111Z,16.69
2022-08-19T04:11:08.080Z,16.80
2022-08-19T04:12:08.040Z,16.75
2022-08-19T04:13:08.001Z,16.84
2022-08-19T04:14:07.982Z,16.66
2022-08-19T04:15:07.925Z,16.75
2022-08-19T04:16:07.891Z,16.70
2022-08-19T04:17:07.851Z,16.81
2022-08-19T04:18:07.813Z,16.77
2022-08-19T04:19:07.777Z,16.81
2022-08-19T04:20:07.759Z,16.77
2022-08-19T04:21:07.707Z,16.85
2022-08-19T04:22:07.669Z,16.87
2022-08-19T04:23:07.624Z,16.69
2022-08-19T04:24:07.584Z,16.73
2022-08-19T04:25:07.558Z,16.72
2022-08-19T04:26:07.528Z,16.78
2022-08-19T04:27:07.475Z,16.73
2022-08-19T04:28:07.436Z,16.84
2022-08-19T04:29:12.124Z,16.70
2022-08-19T04:30:07.360Z,16.77
2022-08-19T04:31:07.333Z,16.75
2022-08-19T04:32:09.255Z,16.75
2022-08-19T04:33:07.251Z,16.73
2022-08-19T04:34:07.205Z,16.90
2022-08-19T04:35:16.986Z,16.88
2022-08-19T04:36:07.137Z,16.87
2022-08-19T04:37:07.103Z,16.84
2022-08-19T04:38:07.056Z,16.92
2022-08-19T04:39:07.027Z,16.91
2022-08-19T04:40:07.038Z,16.96
2022-08-19T04:41:06.939Z,16.90
2022-08-19T04:42:06.907Z,16.84
2022-08-19T04:43:06.878Z,16.88
2022-08-19T04:44:06.844Z,16.87
2022-08-19T04:45:09.251Z,16.88
2022-08-19T04:46:06.761Z,17.00
2022-08-19T04:47:11.427Z,16.98
2022-08-19T04:48:26.684Z,16.99
2022-08-19T04:49:12.966Z,16.91
2022-08-19T04:50:06.600Z,16.98
2022-08-19T04:51:06.566Z,16.95
2022-08-19T04:52:06.533Z,17.09
2022-08-19T04:53:06.501Z,16.92
2022-08-19T04:54:06.453Z,17.03
2022-08-19T04:55:06.409Z,17.09
2022-08-19T04:56:06.381Z,17.15
2022-08-19T04:57:06.364Z,17.10
2022-08-19T04:58:06.327Z,17.24
2022-08-19T04:59:06.320Z,17.22
2022-08-19T05:00:06.237Z,17.15
2022-08-19T05:01:06.291Z,17.24
2022-08-19T05:02:06.181Z,17.33
2022-08-19T05:03:07.697Z,17.49
2022-08-19T05:04:06.075Z,17.47
2022-08-19T05:05:06.049Z,17.60
2022-08-19T05:06:06.022Z,17.65
2022-08-19T05:07:05.987Z,17.68
2022-08-19T05:08:05.929Z,17.76
2022-08-19T05:09:06.108Z,17.84
2022-08-19T05:10:05.895Z,17.89
2022-08-19T05:11:05.871Z,18.07
2022-08-19T05:12:05.798Z,17.92
2022-08-19T05:13:05.759Z,17.87
2022-08-19T05:14:05.699Z,17.86
2022-08-19T05:15:05.661Z,18.05
2022-08-19T05:16:05.646Z,18.01
2022-08-19T05:17:26.177Z,18.01
2022-08-19T05:18:05.576Z,18.16
2022-08-19T05:19:05.539Z,18.26
2022-08-19T05:20:05.488Z,18.36
2022-08-19T05:21:05.491Z,18.49
2022-08-19T05:22:05.413Z,18.54
2022-08-19T05:23:18.528Z,18.66
2022-08-19T05:24:05.371Z,18.60
2022-08-19T05:25:12.803Z,18.64
2022-08-19T05:26:05.258Z,18.56
2022-08-19T05:27:05.314Z,18.66
2022-08-19T05:28:05.204Z,18.59
2022-08-19T05:29:05.142Z,18.64
2022-08-19T05:30:05.121Z,18.62
2022-08-19T05:31:05.073Z,18.68
2022-08-19T05:32:05.037Z,18.69
2022-08-19T05:33:05.019Z,18.84
2022-08-19T05:34:04.954Z,18.97
2022-08-19T05:35:04.911Z,19.21
2022-08-19T05:36:04.886Z,19.52
2022-08-19T05:37:04.848Z,19.75
2022-08-19T05:38:04.805Z,20.13
2022-08-19T05:39:04.779Z,20.41
2022-08-19T05:40:04.871Z,20.58
2022-08-19T05:41:04.709Z,20.64
2022-08-19T05:42:04.688Z,20.76
2022-08-19T05:43:04.626Z,20.73
2022-08-19T05:44:04.595Z,20.71
2022-08-19T05:45:04.599Z,20.78
2022-08-19T05:46:04.527Z,20.76
2022-08-19T05:47:04.478Z,20.87
2022-08-19T05:48:04.463Z,20.97
2022-08-19T05:49:04.491Z,21.15
2022-08-19T05:50:05.050Z,21.27
2022-08-19T05:51:04.681Z,21.45
2022-08-19T05:52:05.701Z,21.93
2022-08-19T05:53:05.537Z,22.24
2022-08-19T05:54:04.229Z,22.61
2022-08-19T05:55:04.204Z,22.97
2022-08-19T05:56:04.165Z,23.16
2022-08-19T05:57:04.162Z,23.22
2022-08-19T05:58:04.121Z,23.54
2022-08-19T05:59:04.046Z,23.63
2022-08-19T06:00:04.038Z,23.74
2022-08-19T06:01:03.979Z,23.77
2022-08-19T06:02:03.954Z,24.00
2022-08-19T06:03:13.063Z,24.12
2022-08-19T06:04:03.879Z,24.30
2022-08-19T06:05:03.840Z,24.31
2022-08-19T06:06:03.802Z,24.59
2022-08-19T06:07:20.929Z,24.64
2022-08-19T06:08:03.742Z,24.36
2022-08-19T06:09:03.704Z,24.31
2022-08-19T06:10:03.677Z,24.41
2022-08-19T06:11:03.635Z,24.36
2022-08-19T06:12:03.719Z,24.26
2022-08-19T06:13:03.759Z,24.31
2022-08-19T06:14:10.330Z,24.42
2022-08-19T06:15:03.492Z,24.44
2022-08-19T06:16:03.474Z,24.74
2022-08-19T06:17:06.835Z,25.09
2022-08-19T06:18:03.387Z,25.45
2022-08-19T06:19:24.458Z,25.24
2022-08-19T06:20:04.242Z,25.07
2022-08-19T06:21:24.291Z,25.09
2022-08-19T06:22:03.256Z,25.08
2022-08-19T06:23:03.219Z,25.57
2022-08-19T06:24:03.181Z,26.04
2022-08-19T06:25:03.154Z,26.20
2022-08-19T06:26:03.100Z,26.08
2022-08-19T06:27:03.075Z,26.11
2022-08-19T06:28:18.658Z,25.94
2022-08-19T06:29:03.009Z,25.71
2022-08-19T06:30:05.693Z,25.39
2022-08-19T06:31:02.931Z,25.01
2022-08-19T06:32:02.904Z,24.52
2022-08-19T06:33:02.862Z,23.99
2022-08-19T06:34:02.826Z,23.69
2022-08-19T06:35:02.802Z,23.42
2022-08-19T06:36:02.760Z,23.07
2022-08-19T06:37:02.728Z,22.91
2022-08-19T06:38:02.704Z,22.54
2022-08-19T06:39:02.655Z,22.67
2022-08-19T06:40:02.692Z,22.35
2022-08-19T06:41:02.615Z,22.12
2022-08-19T06:42:02.565Z,21.89
2022-08-19T06:43:02.634Z,21.75
2022-08-19T06:44:02.487Z,21.85
2022-08-19T06:45:02.457Z,21.89
2022-08-19T06:46:02.928Z,22.02
2022-08-19T06:47:02.426Z,22.08
2022-08-19T06:48:02.388Z,22.21
2022-08-19T06:49:02.314Z,22.24
2022-08-19T06:50:03.131Z,22.33
2022-08-19T06:51:02.252Z,22.23
2022-08-19T06:52:02.216Z,22.23
2022-08-19T06:53:04.411Z,22.21
2022-08-19T06:54:02.150Z,22.14
2022-08-19T06:55:02.118Z,22.17
2022-08-19T06:56:02.078Z,22.14
2022-08-19T06:57:02.047Z,22.09
2022-08-19T06:58:02.020Z,22.02
2022-08-19T06:59:01.962Z,21.99
2022-08-19T07:00:02.051Z,21.90
2022-08-19T07:01:03.443Z,21.64
2022-08-19T07:02:01.860Z,21.74
2022-08-19T07:03:04.504Z,21.67
2022-08-19T07:04:01.797Z,21.64
2022-08-19T07:05:01.771Z,21.59
2022-08-19T07:06:01.725Z,21.77
2022-08-19T07:07:20.089Z,21.89
2022-08-19T07:08:04.804Z,21.96
2022-08-19T07:09:01.627Z,22.12
2022-08-19T07:10:02.882Z,22.19
2022-08-19T07:11:01.693Z,22.05
2022-08-19T07:12:01.518Z,22.04
2022-08-19T07:13:01.473Z,22.01
2022-08-19T07:14:01.450Z,21.90
2022-08-19T07:15:01.447Z,22.05
2022-08-19T07:16:01.380Z,22.06
2022-08-19T07:17:01.337Z,22.09
2022-08-19T07:18:01.300Z,22.12
2022-08-19T07:19:04.845Z,22.11
2022-08-19T07:20:06.745Z,22.23
2022-08-19T07:21:01.204Z,22.33
2022-08-19T07:22:01.158Z,22.48
2022-08-19T07:23:01.121Z,22.64
2022-08-19T07:24:03.023Z,22.94
2022-08-19T07:25:01.052Z,22.94
2022-08-19T07:26:01.091Z,23.16
2022-08-19T07:27:00.993Z,23.07
2022-08-19T07:28:01.476Z,23.23
2022-08-19T07:29:00.917Z,23.35
2022-08-19T07:30:00.875Z,23.37
2022-08-19T07:31:00.843Z,23.34
2022-08-19T07:32:00.894Z,23.26
2022-08-19T07:33:03.624Z,23.23
2022-08-19T07:34:00.737Z,23.14
2022-08-19T07:35:00.702Z,23.00
2022-08-19T07:36:00.671Z,22.76
2022-08-19T07:37:00.655Z,22.85
2022-08-19T07:38:00.594Z,22.64
2022-08-19T07:39:00.562Z,22.46
2022-08-19T07:40:00.624Z,22.12
2022-08-19T07:41:00.490Z,22.09
2022-08-19T07:42:00.468Z,21.93
2022-08-19T07:43:00.422Z,21.93
2022-08-19T07:44:00.386Z,22.05
2022-08-19T07:45:00.349Z,22.09
2022-08-19T07:46:00.395Z,22.23
2022-08-19T07:47:00.281Z,22.27
2022-08-19T07:48:00.616Z,22.46
2022-08-19T07:49:00.210Z,22.48
2022-08-19T07:50:00.181Z,22.72
2022-08-19T07:51:00.138Z,22.84
2022-08-19T07:52:00.106Z,22.93
2022-08-19T07:53:00.072Z,23.03
2022-08-19T07:54:00.045Z,22.99
2022-08-19T07:54:59.999Z,22.96
2022-08-19T07:55:59.965Z,22.76
2022-08-19T07:56:59.929Z,22.91
2022-08-19T07:57:59.895Z,22.81
2022-08-19T07:58:59.863Z,23.14
2022-08-19T07:59:59.836Z,23.29
2022-08-19T08:00:59.799Z,23.25
2022-08-19T08:01:59.797Z,23.41
2022-08-19T08:02:59.724Z,23.47
2022-08-19T08:03:59.689Z,23.67
2022-08-19T08:04:59.653Z,23.77
2022-08-19T08:05:59.619Z,24.09
2022-08-19T08:06:59.591Z,24.53
2022-08-19T08:07:59.547Z,24.84
2022-08-19T08:08:59.516Z,25.26
2022-08-19T08:09:59.496Z,25.49
2022-08-19T08:10:59.446Z,25.71
2022-08-19T08:12:01.922Z,26.09
2022-08-19T08:13:10.275Z,26.38
2022-08-19T08:14:00.908Z,26.84
2022-08-19T08:14:59.316Z,27.11
2022-08-19T08:15:59.278Z,27.84
2022-08-19T08:16:59.263Z,27.93
2022-08-19T08:17:59.212Z,28.45
2022-08-19T08:18:59.183Z,28.06
2022-08-19T08:19:59.149Z,27.98
2022-08-19T08:20:59.124Z,27.62
2022-08-19T08:21:59.084Z,28.45
2022-08-19T08:22:59.065Z,28.65
2022-08-19T08:24:58.990Z,29.48
2022-08-19T08:25:58.975Z,29.79
2022-08-19T08:26:58.930Z,30.28
2022-08-19T08:27:58.894Z,30.49
2022-08-19T08:28:58.865Z,30.11
2022-08-19T08:29:58.844Z,29.23
2022-08-19T08:30:58.811Z,28.01
2022-08-19T08:32:00.121Z,27.39
2022-08-19T08:32:58.738Z,27.08
2022-08-19T08:33:58.707Z,26.96
2022-08-19T08:34:58.676Z,26.51
2022-08-19T08:35:58.656Z,26.54
2022-08-19T08:36:58.614Z,26.38
2022-08-19T08:37:58.580Z,26.13
2022-08-19T08:39:58.535Z,25.76
2022-08-19T08:40:58.502Z,25.71
2022-08-19T08:41:58.453Z,26.04
2022-08-19T08:42:58.424Z,26.47
2022-08-19T08:43:58.583Z,26.72
2022-08-19T08:45:58.326Z,27.13
2022-08-19T08:46:58.307Z,27.52
2022-08-19T08:47:58.320Z,27.95
2022-08-19T08:48:58.233Z,28.21
2022-08-19T08:49:58.198Z,28.25
2022-08-19T08:50:58.170Z,28.36
2022-08-19T08:51:59.374Z,28.38
2022-08-19T08:52:58.114Z,28.67
2022-08-19T08:53:58.072Z,28.82
2022-08-19T08:54:58.042Z,28.97
2022-08-19T08:55:58.003Z,29.41
2022-08-19T08:56:57.980Z,29.51
2022-08-19T08:57:57.945Z,29.51
2022-08-19T08:58:57.925Z,29.49
2022-08-19T08:59:57.881Z,29.54
2022-08-19T09:00:57.852Z,29.26
2022-08-19T09:01:57.855Z,29.17
2022-08-19T09:02:57.813Z,29.23
2022-08-19T09:04:02.969Z,28.23
2022-08-19T09:04:57.727Z,27.78
2022-08-19T09:05:57.695Z,28.14
2022-08-19T09:06:57.665Z,28.27
2022-08-19T09:07:57.907Z,28.39
2022-08-19T09:08:57.599Z,28.43
2022-08-19T09:09:57.572Z,28.38
2022-08-19T09:10:57.542Z,28.13
2022-08-19T09:11:57.512Z,28.05
2022-08-19T09:12:57.485Z,28.02
2022-08-19T09:13:57.460Z,27.93
2022-08-19T09:14:57.418Z,27.84
2022-08-19T09:15:57.392Z,27.59
2022-08-19T09:16:57.357Z,27.16
2022-08-19T09:17:57.327Z,26.88
2022-08-19T09:18:57.296Z,26.84
2022-08-19T09:19:57.274Z,26.57
2022-08-19T09:20:57.230Z,26.57
2022-08-19T09:21:57.201Z,26.50
2022-08-19T09:22:57.173Z,26.50
2022-08-19T09:23:57.136Z,26.47
2022-08-19T09:24:57.116Z,26.57
2022-08-19T09:25:57.087Z,26.65
2022-08-19T09:26:57.039Z,26.59
2022-08-19T09:28:01.177Z,26.79
2022-08-19T09:28:56.977Z,27.15
2022-08-19T09:29:56.943Z,27.27
2022-08-19T09:30:56.913Z,27.23
2022-08-19T09:31:56.894Z,27.35
2022-08-19T09:32:56.851Z,27.50
2022-08-19T09:33:56.815Z,27.88
2022-08-19T09:34:56.786Z,28.32
2022-08-19T09:35:56.754Z,28.43
2022-08-19T09:36:56.721Z,28.40
2022-08-19T09:37:57.346Z,28.64
2022-08-19T09:38:56.676Z,29.12
2022-08-19T09:39:56.652Z,29.49
2022-08-19T09:40:56.592Z,29.42
2022-08-19T09:41:56.562Z,29.47
2022-08-19T09:42:56.533Z,29.54
2022-08-19T09:43:56.511Z,29.69
2022-08-19T09:44:56.473Z,29.73
2022-08-19T09:45:56.440Z,29.39
2022-08-19T09:46:56.410Z,29.12
2022-08-19T09:47:56.524Z,29.41
2022-08-19T09:48:56.346Z,29.64
2022-08-19T09:49:56.323Z,29.63
2022-08-19T09:50:56.285Z,29.73
2022-08-19T09:51:56.266Z,29.52
2022-08-19T09:52:57.714Z,29.37
2022-08-19T09:53:56.196Z,29.47
2022-08-19T09:54:56.165Z,29.67
2022-08-19T09:55:56.132Z,29.86
2022-08-19T09:56:56.104Z,29.73
2022-08-19T09:57:56.079Z,29.18
2022-08-19T09:58:56.069Z,28.82
2022-08-19T09:59:56.015Z,28.25
2022-08-19T10:00:56.036Z,28.48
2022-08-19T10:01:55.951Z,28.57
2022-08-19T10:02:55.918Z,28.83
2022-08-19T10:03:55.905Z,28.72
2022-08-19T10:04:55.861Z,28.69
2022-08-19T10:05:55.827Z,28.69
2022-08-19T10:06:55.800Z,28.91
2022-08-19T10:07:56.898Z,29.12
2022-08-19T10:08:55.754Z,29.48
2022-08-19T10:09:55.721Z,29.37
2022-08-19T10:10:55.690Z,29.60
2022-08-19T10:11:55.647Z,29.97
2022-08-19T10:12:55.621Z,29.94
2022-08-19T10:13:55.584Z,29.66
2022-08-19T10:14:55.557Z,29.32
2022-08-19T10:15:55.751Z,29.27
2022-08-19T10:16:55.496Z,29.55
2022-08-19T10:17:55.667Z,29.62
2022-08-19T10:22:00.064Z,30.63
2022-08-19T10:22:19.346Z,30.37
2022-08-19T10:23:19.189Z,29.85
2022-08-19T10:24:19.160Z,29.47
2022-08-19T10:25:19.129Z,29.14
2022-08-19T10:26:19.150Z,28.72
2022-08-19T10:27:19.082Z,28.42
2022-08-19T10:28:19.097Z,28.27
2022-08-19T10:29:32.660Z,28.45
2022-08-19T10:30:18.977Z,28.80
2022-08-19T10:31:19.475Z,29.11
2022-08-19T10:32:18.939Z,29.30
2022-08-19T10:33:19.256Z,29.94
2022-08-19T10:34:28.543Z,30.07
2022-08-19T10:35:21.765Z,29.64
2022-08-19T10:36:18.945Z,29.54
2022-08-19T10:37:23.653Z,29.07
2022-08-19T10:38:18.757Z,29.03
2022-08-19T10:39:18.703Z,28.88
2022-08-19T10:40:18.945Z,28.60
2022-08-19T10:41:18.654Z,28.24
2022-08-19T10:42:18.612Z,28.62
2022-08-19T10:43:18.579Z,28.65
2022-08-19T10:44:18.551Z,28.61
2022-08-19T10:45:18.520Z,28.55
2022-08-19T10:46:18.487Z,28.32
2022-08-19T10:47:25.883Z,28.52
2022-08-19T10:48:19.587Z,29.02
2022-08-19T10:49:18.468Z,29.52
2022-08-19T10:50:18.366Z,29.82
2022-08-19T10:51:22.852Z,29.55
2022-08-19T10:52:18.802Z,29.41
2022-08-19T10:53:18.277Z,29.88
2022-08-19T10:54:29.524Z,29.82
2022-08-19T10:55:18.210Z,29.63
2022-08-19T10:56:18.177Z,29.11
2022-08-19T10:57:18.160Z,28.58
2022-08-19T10:58:18.120Z,28.15
2022-08-19T10:59:18.086Z,27.66
2022-08-19T11:00:18.054Z,27.27
2022-08-19T11:01:18.069Z,26.98
2022-08-19T11:02:18.035Z,26.59
2022-08-19T11:03:17.961Z,26.51
2022-08-19T11:04:17.932Z,26.61
2022-08-19T11:05:17.906Z,26.75
2022-08-19T11:06:17.863Z,26.87
2022-08-19T11:07:17.852Z,26.81
2022-08-19T11:08:23.263Z,26.94
2022-08-19T11:09:17.774Z,26.86
2022-08-19T11:10:21.414Z,27.01
2022-08-19T11:11:17.708Z,27.03
2022-08-19T11:12:17.674Z,27.16
2022-08-19T11:13:17.651Z,27.38
2022-08-19T11:14:17.610Z,27.39
2022-08-19T11:15:17.578Z,27.48
2022-08-19T11:16:17.545Z,27.63
2022-08-19T11:17:17.514Z,27.69
2022-08-19T11:18:17.482Z,27.91
2022-08-19T11:19:17.463Z,28.13
2022-08-19T11:20:17.418Z,28.17
2022-08-19T11:21:17.396Z,28.43
2022-08-19T11:22:17.352Z,28.43
2022-08-19T11:23:17.321Z,28.64
2022-08-19T11:24:17.293Z,28.77
2022-08-19T11:25:17.268Z,28.80
2022-08-19T11:26:17.229Z,28.95
2022-08-19T11:27:17.194Z,28.88
2022-08-19T11:28:17.160Z,29.08
2022-08-19T11:29:17.131Z,29.26
2022-08-19T11:30:17.117Z,29.55
2022-08-19T11:31:17.068Z,29.66
2022-08-19T11:32:17.037Z,29.73
2022-08-19T11:33:17.008Z,29.91
2022-08-19T11:34:17.001Z,29.91
2022-08-19T11:35:17.022Z,29.79
2022-08-19T11:36:16.918Z,29.73
2022-08-19T11:37:16.882Z,29.76
2022-08-19T11:38:16.857Z,29.74
2022-08-19T11:39:16.827Z,29.91
2022-08-19T11:40:16.877Z,30.30
2022-08-19T11:41:16.779Z,30.46
2022-08-19T11:42:16.750Z,30.38
2022-08-19T11:43:16.710Z,30.46
2022-08-19T11:44:16.688Z,30.21
2022-08-19T11:45:16.652Z,30.07
2022-08-19T11:46:16.621Z,29.69
2022-08-19T11:47:16.623Z,29.36
2022-08-19T11:48:16.568Z,29.45
2022-08-19T11:49:16.537Z,29.37
2022-08-19T11:50:16.508Z,29.36
2022-08-19T11:51:16.480Z,29.25
2022-08-19T11:52:16.450Z,29.03
2022-08-19T11:53:16.431Z,28.80
2022-08-19T11:54:16.391Z,28.92
2022-08-19T11:55:16.362Z,28.58
2022-08-19T11:56:16.334Z,28.60
2022-08-19T11:57:16.307Z,28.88
2022-08-19T11:58:19.213Z,29.26
2022-08-19T11:59:16.253Z,29.20
2022-08-19T12:00:16.214Z,29.52
2022-08-19T12:01:16.192Z,29.74
2022-08-19T12:02:16.164Z,29.67
2022-08-19T12:03:16.127Z,29.54
2022-08-19T12:04:16.117Z,29.29
2022-08-19T12:05:16.075Z,29.20
2022-08-19T12:06:16.035Z,29.02
2022-08-19T12:07:16.020Z,29.10
2022-08-19T12:08:15.976Z,28.83
2022-08-19T12:09:15.951Z,28.73
2022-08-19T12:10:15.915Z,28.70
2022-08-19T12:11:15.897Z,28.39
2022-08-19T12:12:15.857Z,28.18
2022-08-19T12:13:15.826Z,28.11
2022-08-19T12:14:16.846Z,28.08
2022-08-19T12:15:15.765Z,28.20
2022-08-19T12:16:15.735Z,28.17
2022-08-19T12:17:15.721Z,28.21
2022-08-19T12:18:15.673Z,28.50
2022-08-19T12:19:15.660Z,28.74
2022-08-19T12:20:15.614Z,28.74
2022-08-19T12:21:15.581Z,28.88
2022-08-19T12:22:15.553Z,29.08
2022-08-19T12:23:15.524Z,29.29
2022-08-19T12:24:15.490Z,29.29
2022-08-19T12:25:15.475Z,29.18
2022-08-19T12:26:15.431Z,29.07
2022-08-19T12:27:15.400Z,29.25
2022-08-19T12:28:15.378Z,29.27
2022-08-19T12:29:15.345Z,29.30
2022-08-19T12:30:15.311Z,29.47
2022-08-19T12:31:15.297Z,29.47
2022-08-19T12:32:15.262Z,29.41
2022-08-19T12:33:15.223Z,29.45
2022-08-19T12:34:15.192Z,29.30
2022-08-19T12:35:15.167Z,29.00
2022-08-19T12:36:15.139Z,28.82
2022-08-19T12:37:15.107Z,28.73
2022-08-19T12:38:15.089Z,28.76
2022-08-19T12:39:15.052Z,28.48
2022-08-19T12:40:15.205Z,28.50
2022-08-19T12:41:14.989Z,28.54
2022-08-19T12:42:14.961Z,28.54
2022-08-19T12:43:14.943Z,28.24
2022-08-19T12:44:14.917Z,28.32
2022-08-19T12:45:14.876Z,28.15
2022-08-19T12:46:14.847Z,28.27
2022-08-19T12:47:15.319Z,28.43
2022-08-19T12:48:34.705Z,28.40
2022-08-19T12:49:52.100Z,28.20
2022-08-19T12:50:14.748Z,27.93
2022-08-19T12:51:14.699Z,28.06
2022-08-19T12:52:14.663Z,28.15
2022-08-19T12:53:14.633Z,28.14
2022-08-19T12:54:14.601Z,28.30
2022-08-19T12:55:14.570Z,28.36
2022-08-19T12:56:14.549Z,28.46
2022-08-19T12:57:14.516Z,28.52